createdAt,value
2022-12-25T00:01:21.662Z,79.61
2022-12-25T00:03:54.760Z,79.59
2022-12-25T00:06:27.847Z,79.53
2022-12-25T00:09:02.150Z,80.17
2022-12-25T00:11:35.500Z,79.64
2022-12-25T00:14:08.631Z,80.01
2022-12-25T00:16:41.407Z,79.58
2022-12-25T00:19:14.228Z,79.66
2022-12-25T00:21:47.172Z,79.54
2022-12-25T00:24:21.435Z,79.93
2022-12-25T00:26:54.350Z,78.24
2022-12-25T00:29:28.207Z,79.28
2022-12-25T00:32:01.098Z,79.49
2022-12-25T00:34:34.275Z,79.21
2022-12-25T00:37:07.095Z,79.08
2022-12-25T00:39:41.453Z,79.45
2022-12-25T00:42:20.763Z,79.51
2022-12-25T00:44:53.746Z,79.46
2022-12-25T00:47:26.652Z,79.73
2022-12-25T00:49:59.552Z,79.76
2022-12-25T00:52:32.521Z,79.34
2022-12-25T00:55:07.159Z,79.88
2022-12-25T00:57:40.258Z,79.79
2022-12-25T01:00:15.068Z,79.69
2022-12-25T01:02:48.098Z,79.41
2022-12-25T01:05:21.256Z,79.13
2022-12-25T01:07:54.482Z,79.84
2022-12-25T01:10:27.759Z,79.66
2022-12-25T01:13:00.522Z,79.90
2022-12-25T01:15:33.331Z,80.09
2022-12-25T01:18:08.050Z,79.90
2022-12-25T01:20:42.040Z,79.76
2022-12-25T01:23:15.011Z,80.16
2022-12-25T01:25:48.976Z,80.09
2022-12-25T01:28:21.868Z,80.26
2022-12-25T01:30:54.552Z,80.24
2022-12-25T01:33:27.679Z,80.56
2022-12-25T01:36:00.649Z,79.60
2022-12-25T01:38:33.348Z,80.10
2022-12-25T01:41:07.738Z,80.05
2022-12-25T01:44:00.825Z,79.58
2022-12-25T01:46:35.724Z,79.47
2022-12-25T01:49:12.903Z,80.00
2022-12-25T01:51:48.584Z,80.00
2022-12-25T01:54:26.230Z,80.06
2022-12-25T01:57:03.236Z,79.94
2022-12-25T01:59:36.501Z,79.88
2022-12-25T02:02:09.598Z,80.26
2022-12-25T02:04:47.902Z,80.29
2022-12-25T02:07:24.289Z,79.56
2022-12-25T02:09:57.115Z,80.19
2022-12-25T02:12:34.956Z,80.38
2022-12-25T02:15:12.272Z,79.90
2022-12-25T02:17:54.190Z,80.46
2022-12-25T02:20:52.618Z,80.10
2022-12-25T02:24:01.823Z,79.96
2022-12-25T02:26:53.610Z,80.12
2022-12-25T02:29:34.109Z,80.56
2022-12-25T02:32:16.253Z,80.56
2022-12-25T02:34:53.911Z,80.61
2022-12-25T02:37:31.814Z,80.01
2022-12-25T02:40:11.941Z,80.06
2022-12-25T02:43:09.564Z,79.81
2022-12-25T02:46:06.615Z,80.08
2022-12-25T02:49:00.806Z,79.84
2022-12-25T02:51:56.766Z,80.25
2022-12-25T02:54:52.360Z,80.00
2022-12-25T02:57:48.080Z,80.33
2022-12-25T03:00:38.783Z,80.48
2022-12-25T03:03:32.359Z,80.41
2022-12-25T03:06:24.992Z,81.09
2022-12-25T03:09:21.281Z,80.50
2022-12-25T03:12:02.348Z,80.40
2022-12-25T03:14:52.870Z,80.58
2022-12-25T03:17:26.288Z,80.52
2022-12-25T03:20:18.414Z,80.14
2022-12-25T03:23:09.053Z,80.08
2022-12-25T03:25:59.976Z,80.16
2022-12-25T03:28:33.065Z,80.10
2022-12-25T03:31:17.132Z,80.13
2022-12-25T03:34:23.445Z,79.99
2022-12-25T03:37:22.696Z,79.85
2022-12-25T03:40:22.274Z,80.33
2022-12-25T03:43:17.105Z,80.56
2022-12-25T03:46:15.807Z,79.88
2022-12-25T03:49:11.813Z,80.38
2022-12-25T03:52:07.093Z,80.04
2022-12-25T03:55:01.382Z,80.28
2022-12-25T03:57:52.998Z,80.72
2022-12-25T04:00:43.518Z,80.39
2022-12-25T04:03:45.592Z,80.44
2022-12-25T04:06:36.141Z,80.89
2022-12-25T04:09:26.378Z,80.33
2022-12-25T04:12:18.433Z,80.31
2022-12-25T04:15:08.920Z,80.33
2022-12-25T04:17:59.387Z,79.95
2022-12-25T04:20:50.130Z,79.98
2022-12-25T04:23:40.677Z,80.77
2022-12-25T04:26:31.869Z,80.56
2022-12-25T04:29:23.853Z,80.12
2022-12-25T04:32:14.318Z,80.52
2022-12-25T04:35:04.498Z,80.50
2022-12-25T04:37:37.568Z,80.37
2022-12-25T04:40:11.368Z,79.71
2022-12-25T04:42:44.197Z,80.02
2022-12-25T04:45:18.626Z,80.28
2022-12-25T04:47:51.508Z,79.97
2022-12-25T04:50:24.441Z,79.97
2022-12-25T04:52:57.891Z,79.00
2022-12-25T04:55:30.981Z,79.17
2022-12-25T04:58:03.915Z,79.24
2022-12-25T05:00:38.300Z,78.77
2022-12-25T05:03:11.376Z,78.96
2022-12-25T05:05:44.398Z,79.14
2022-12-25T05:08:17.170Z,79.28
2022-12-25T05:10:50.188Z,79.42
2022-12-25T05:13:23.563Z,80.23
2022-12-25T05:15:57.977Z,79.75
2022-12-25T05:18:33.027Z,79.92
2022-12-25T05:21:06.465Z,79.76
2022-12-25T05:23:48.719Z,80.10
2022-12-25T05:26:23.675Z,79.76
2022-12-25T05:28:56.853Z,79.67
2022-12-25T05:31:32.428Z,79.64
2022-12-25T05:34:05.370Z,79.51
2022-12-25T05:36:38.226Z,79.69
2022-12-25T05:39:11.077Z,80.05
2022-12-25T05:41:44.656Z,79.82
2022-12-25T05:44:18.034Z,79.75
2022-12-25T05:46:52.870Z,79.79
2022-12-25T05:49:26.115Z,79.73
2022-12-25T05:51:59.352Z,79.50
2022-12-25T05:54:33.363Z,79.86
2022-12-25T05:57:06.280Z,79.71
2022-12-25T05:59:39.275Z,79.58
2022-12-25T06:02:13.402Z,79.59
2022-12-25T06:04:46.286Z,79.79
2022-12-25T06:07:19.245Z,79.74
2022-12-25T06:09:52.049Z,79.71
2022-12-25T06:12:25.042Z,79.60
2022-12-25T06:14:58.123Z,79.82
2022-12-25T06:17:32.352Z,79.38
2022-12-25T06:20:06.041Z,79.31
2022-12-25T06:22:39.079Z,79.40
2022-12-25T06:25:12.161Z,79.34
2022-12-25T06:27:45.215Z,79.41
2022-12-25T06:30:18.307Z,79.50
2022-12-25T06:32:52.499Z,79.83
2022-12-25T06:35:25.582Z,79.95
2022-12-25T06:37:58.196Z,79.84
2022-12-25T06:40:31.113Z,79.91
2022-12-25T06:43:03.914Z,79.84
2022-12-25T06:45:37.201Z,79.88
2022-12-25T06:48:11.596Z,79.53
2022-12-25T06:50:45.037Z,79.75
2022-12-25T06:53:17.936Z,79.64
2022-12-25T06:55:50.854Z,79.55
2022-12-25T06:58:23.777Z,79.85
2022-12-25T07:00:58.179Z,79.46
2022-12-25T07:03:32.575Z,79.71
2022-12-25T07:06:07.694Z,79.51
2022-12-25T07:08:40.675Z,79.36
2022-12-25T07:11:13.555Z,79.72
2022-12-25T07:13:46.660Z,79.64
2022-12-25T07:16:20.231Z,79.85
2022-12-25T07:18:54.480Z,79.62
2022-12-25T07:21:27.334Z,79.18
2022-12-25T07:24:00.142Z,79.84
2022-12-25T07:26:32.899Z,79.41
2022-12-25T07:29:05.931Z,79.75
2022-12-25T07:31:39.079Z,79.71
2022-12-25T07:34:13.364Z,79.74
2022-12-25T07:36:47.098Z,79.17
2022-12-25T07:39:20.311Z,79.24
2022-12-25T07:41:53.382Z,79.41
2022-12-25T07:44:26.434Z,78.96
2022-12-25T07:46:59.512Z,79.80
2022-12-25T07:49:33.423Z,79.47
2022-12-25T07:52:06.788Z,79.03
2022-12-25T07:54:39.576Z,78.93
2022-12-25T07:57:12.526Z,78.80
2022-12-25T07:59:45.667Z,79.00
2022-12-25T08:02:19.178Z,78.50
2022-12-25T08:04:53.924Z,78.62
2022-12-25T08:07:27.590Z,78.50
2022-12-25T08:10:00.442Z,78.82
2022-12-25T08:12:33.207Z,78.56
2022-12-25T08:15:06.960Z,78.69
2022-12-25T08:17:39.735Z,78.33
2022-12-25T08:20:14.610Z,78.23
2022-12-25T08:22:47.638Z,78.39
2022-12-25T08:25:20.275Z,78.45
2022-12-25T08:27:53.087Z,78.51
2022-12-25T08:30:26.032Z,78.15
2022-12-25T08:32:58.885Z,78.38
2022-12-25T08:35:34.503Z,78.64
2022-12-25T08:38:07.250Z,78.78
2022-12-25T08:40:40.072Z,79.13
2022-12-25T08:43:13.019Z,78.98
2022-12-25T08:45:47.887Z,79.09
2022-12-25T08:48:20.737Z,79.47
2022-12-25T08:50:55.116Z,79.29
2022-12-25T08:53:28.237Z,78.99
2022-12-25T08:56:04.285Z,79.13
2022-12-25T08:58:38.076Z,82.88
2022-12-25T09:01:11.594Z,85.88
2022-12-25T09:03:44.632Z,84.03
2022-12-25T09:06:18.593Z,82.99
2022-12-25T09:08:52.760Z,82.43
2022-12-25T09:11:28.353Z,81.62
2022-12-25T09:14:01.650Z,81.40
2022-12-25T09:16:34.375Z,80.77
2022-12-25T09:19:07.275Z,80.88
2022-12-25T09:21:41.384Z,80.48
2022-12-25T09:24:14.911Z,80.17
2022-12-25T09:26:47.801Z,79.96
2022-12-25T09:29:20.504Z,80.26
2022-12-25T09:31:53.443Z,80.11
2022-12-25T09:34:26.353Z,80.06
2022-12-25T09:37:00.448Z,80.04
2022-12-25T09:39:33.462Z,79.95
2022-12-25T09:42:13.589Z,80.06
2022-12-25T09:44:52.111Z,79.85
2022-12-25T09:47:27.871Z,79.80
2022-12-25T09:50:06.620Z,80.03
2022-12-25T09:52:46.011Z,79.92
2022-12-25T09:55:21.443Z,80.01
2022-12-25T09:57:57.724Z,80.25
2022-12-25T10:00:37.324Z,79.78
2022-12-25T10:03:36.223Z,80.02
2022-12-25T10:06:14.676Z,79.64
2022-12-25T10:09:06.133Z,79.47
2022-12-25T10:11:52.828Z,79.72
2022-12-25T10:14:35.381Z,79.85
2022-12-25T10:17:27.530Z,79.76
2022-12-25T10:20:06.518Z,79.88
2022-12-25T10:22:43.699Z,79.71
2022-12-25T10:25:20.752Z,79.68
2022-12-25T10:27:58.146Z,80.02
2022-12-25T10:30:32.340Z,79.90
2022-12-25T10:33:05.261Z,80.01
2022-12-25T10:35:39.056Z,79.28
2022-12-25T10:38:15.795Z,79.90
2022-12-25T10:41:05.988Z,79.44
2022-12-25T10:43:44.589Z,79.63
2022-12-25T10:46:18.479Z,79.83
2022-12-25T10:48:53.898Z,79.76
2022-12-25T10:51:30.564Z,79.69
2022-12-25T10:54:05.594Z,79.30
2022-12-25T10:56:39.705Z,79.23
2022-12-25T10:59:12.583Z,79.85
2022-12-25T11:01:45.489Z,79.77
2022-12-25T11:04:20.195Z,79.22
2022-12-25T11:07:07.339Z,79.01
2022-12-25T11:09:40.835Z,79.55
2022-12-25T11:12:18.806Z,79.12
2022-12-25T11:14:57.225Z,80.00
2022-12-25T11:17:30.041Z,79.96
2022-12-25T11:20:03.516Z,78.78
2022-12-25T11:22:38.458Z,78.96
2022-12-25T11:25:15.268Z,79.76
2022-12-25T11:27:58.326Z,79.26
2022-12-25T11:30:33.687Z,79.31
2022-12-25T11:33:12.165Z,78.78
2022-12-25T11:35:52.859Z,79.58
2022-12-25T11:38:28.258Z,80.27
2022-12-25T11:41:05.695Z,79.10
2022-12-25T11:43:45.877Z,79.57
2022-12-25T11:46:22.786Z,79.33
2022-12-25T11:49:00.428Z,78.66
2022-12-25T11:51:37.108Z,78.79
2022-12-25T11:54:20.848Z,78.55
2022-12-25T11:56:54.531Z,78.82
2022-12-25T11:59:33.955Z,78.81
2022-12-25T12:02:23.016Z,79.49
2022-12-25T12:05:09.233Z,79.82
2022-12-25T12:07:52.868Z,79.06
2022-12-25T12:10:33.894Z,78.95
2022-12-25T12:13:27.098Z,78.80
2022-12-25T12:16:01.507Z,79.50
2022-12-25T12:18:35.705Z,79.29
2022-12-25T12:21:20.719Z,79.43
2022-12-25T12:23:58.529Z,79.08
2022-12-25T12:26:36.951Z,79.34
2022-12-25T12:29:24.656Z,79.04
2022-12-25T12:32:04.725Z,79.17
2022-12-25T12:34:43.785Z,78.66
2022-12-25T12:37:24.764Z,79.21
2022-12-25T12:39:59.106Z,78.92
2022-12-25T12:42:40.476Z,78.60
2022-12-25T12:45:22.569Z,78.85
2022-12-25T12:47:57.496Z,79.12
2022-12-25T12:50:35.184Z,79.14
2022-12-25T12:53:31.415Z,79.03
2022-12-25T12:56:13.512Z,78.50
2022-12-25T12:58:50.935Z,78.64
2022-12-25T13:01:44.810Z,79.21
2022-12-25T13:04:54.885Z,78.17
2022-12-25T13:07:55.392Z,78.88
2022-12-25T13:10:33.611Z,78.74
2022-12-25T13:13:16.993Z,78.88
2022-12-25T13:15:53.727Z,79.22
2022-12-25T13:18:28.404Z,79.37
2022-12-25T13:21:08.194Z,79.15
2022-12-25T13:23:43.115Z,79.06
2022-12-25T13:26:21.155Z,79.25
2022-12-25T13:28:56.214Z,78.88
2022-12-25T13:31:34.043Z,79.00
2022-12-25T13:34:18.429Z,79.34
2022-12-25T13:36:52.945Z,79.31
2022-12-25T13:39:31.872Z,79.22
2022-12-25T13:42:10.704Z,79.07
2022-12-25T13:44:49.448Z,79.16
2022-12-25T13:47:34.667Z,79.24
2022-12-25T13:50:21.419Z,79.56
2022-12-25T13:52:56.250Z,79.25
2022-12-25T13:55:31.150Z,78.87
2022-12-25T13:58:06.669Z,79.00
2022-12-25T14:00:47.732Z,79.10
2022-12-25T14:03:24.914Z,78.98
2022-12-25T14:06:03.775Z,79.27
2022-12-25T14:08:37.674Z,79.25
2022-12-25T14:11:15.510Z,79.29
2022-12-25T14:13:52.122Z,79.06
2022-12-25T14:16:27.238Z,79.74
2022-12-25T14:19:01.915Z,79.29
2022-12-25T14:21:39.192Z,79.30
2022-12-25T14:24:14.619Z,79.16
2022-12-25T14:26:49.125Z,79.63
2022-12-25T14:29:28.042Z,78.99
2022-12-25T14:32:05.635Z,79.04
2022-12-25T14:34:38.955Z,79.23
2022-12-25T14:37:19.157Z,79.34
2022-12-25T14:40:00.740Z,79.09
2022-12-25T14:42:36.364Z,79.16
2022-12-25T14:45:28.204Z,79.23
2022-12-25T14:48:04.442Z,79.28
2022-12-25T14:50:42.951Z,79.42
2022-12-25T14:53:24.298Z,79.70
2022-12-25T14:56:00.625Z,79.38
2022-12-25T14:58:41.744Z,79.47
2022-12-25T15:01:24.796Z,79.22
2022-12-25T15:04:08.816Z,79.70
2022-12-25T15:06:43.159Z,79.80
2022-12-25T15:09:19.199Z,79.69
2022-12-25T15:11:55.568Z,79.67
2022-12-25T15:14:31.999Z,79.68
2022-12-25T15:17:05.472Z,79.89
2022-12-25T15:19:39.595Z,79.58
2022-12-25T15:22:14.442Z,79.45
2022-12-25T15:24:54.670Z,79.50
2022-12-25T15:27:48.842Z,79.43
2022-12-25T15:30:32.741Z,79.45
2022-12-25T15:33:08.865Z,79.12
2022-12-25T15:35:46.360Z,79.34
2022-12-25T15:38:38.987Z,79.76
2022-12-25T15:41:54.920Z,79.80
2022-12-25T15:44:37.305Z,79.64
2022-12-25T15:47:21.429Z,79.68
2022-12-25T15:50:01.143Z,79.58
2022-12-25T15:52:48.496Z,79.65
2022-12-25T15:55:31.648Z,79.85
2022-12-25T15:58:10.674Z,79.47
2022-12-25T16:00:47.870Z,79.62
2022-12-25T16:03:23.026Z,79.54
2022-12-25T16:05:56.792Z,79.57
2022-12-25T16:08:32.582Z,79.51
2022-12-25T16:11:16.288Z,79.19
2022-12-25T16:13:49.835Z,79.43
2022-12-25T16:16:33.474Z,79.29
2022-12-25T16:19:11.632Z,79.20
2022-12-25T16:21:52.639Z,79.33
2022-12-25T16:24:27.310Z,79.25
2022-12-25T16:27:01.057Z,79.25
2022-12-25T16:29:37.850Z,78.90
2022-12-25T16:32:13.193Z,79.06
2022-12-25T16:34:50.528Z,78.98
2022-12-25T16:37:27.374Z,78.58
2022-12-25T16:40:01.152Z,79.00
2022-12-25T16:42:42.388Z,79.06
2022-12-25T16:45:22.027Z,78.98
2022-12-25T16:48:03.479Z,79.28
2022-12-25T16:50:47.651Z,78.51
2022-12-25T16:53:23.238Z,79.09
2022-12-25T16:56:06.408Z,78.54
2022-12-25T16:58:39.406Z,78.48
2022-12-25T17:01:14.523Z,78.64
2022-12-25T17:03:48.216Z,78.68
2022-12-25T17:06:24.314Z,78.66
2022-12-25T17:08:58.540Z,78.69
2022-12-25T17:11:32.651Z,78.24
2022-12-25T17:14:09.039Z,78.49
2022-12-25T17:16:42.322Z,78.44
2022-12-25T17:19:22.231Z,78.14
2022-12-25T17:21:57.440Z,78.47
2022-12-25T17:24:30.467Z,78.45
2022-12-25T17:27:08.570Z,78.52
2022-12-25T17:29:42.703Z,78.36
2022-12-25T17:32:16.111Z,78.86
2022-12-25T17:34:49.121Z,78.51
2022-12-25T17:37:24.960Z,79.27
2022-12-25T17:39:57.987Z,78.85
2022-12-25T17:42:30.948Z,78.45
2022-12-25T17:45:04.288Z,79.04
2022-12-25T17:47:37.348Z,79.14
2022-12-25T17:50:10.135Z,79.49
2022-12-25T17:52:44.361Z,79.21
2022-12-25T17:55:17.522Z,79.06
2022-12-25T17:57:51.122Z,78.57
2022-12-25T18:00:24.065Z,79.04
2022-12-25T18:02:58.163Z,79.66
2022-12-25T18:05:31.231Z,80.01
2022-12-25T18:08:05.535Z,79.33
2022-12-25T18:10:42.344Z,79.51
2022-12-25T18:13:15.458Z,79.44
2022-12-25T18:15:48.573Z,79.84
2022-12-25T18:18:21.424Z,79.07
2022-12-25T18:20:55.101Z,79.25
2022-12-25T18:23:29.892Z,79.13
2022-12-25T18:26:03.600Z,78.79
2022-12-25T18:28:36.827Z,78.72
2022-12-25T18:31:10.472Z,78.85
2022-12-25T18:33:44.576Z,79.10
2022-12-25T18:36:22.583Z,79.29
2022-12-25T18:38:57.972Z,78.79
2022-12-25T18:41:31.210Z,79.01
2022-12-25T18:44:04.794Z,78.83
2022-12-25T18:46:38.063Z,79.08
2022-12-25T18:49:11.611Z,79.12
2022-12-25T18:51:44.463Z,78.87
2022-12-25T18:54:19.344Z,78.83
2022-12-25T18:56:53.647Z,78.95
2022-12-25T18:59:27.101Z,78.67
2022-12-25T19:02:00.427Z,78.45
2022-12-25T19:04:36.004Z,78.62
2022-12-25T19:07:09.242Z,78.72
2022-12-25T19:09:46.514Z,78.45
2022-12-25T19:12:19.651Z,78.74
2022-12-25T19:14:52.996Z,78.78
2022-12-25T19:17:31.555Z,78.73
2022-12-25T19:20:06.957Z,78.25
2022-12-25T19:22:39.847Z,79.00
2022-12-25T19:25:14.348Z,78.21
2022-12-25T19:27:49.585Z,78.25
2022-12-25T19:30:22.471Z,78.21
2022-12-25T19:32:55.257Z,78.19
2022-12-25T19:35:30.295Z,78.28
2022-12-25T19:38:03.135Z,77.83
2022-12-25T19:40:39.480Z,78.15
2022-12-25T19:43:13.681Z,78.16
2022-12-25T19:45:46.442Z,78.11
2022-12-25T19:48:19.251Z,78.43
2022-12-25T19:50:54.940Z,78.09
2022-12-25T19:53:29.412Z,78.04
2022-12-25T19:56:04.224Z,78.32
2022-12-25T19:58:37.522Z,78.12
2022-12-25T20:01:14.675Z,78.11
2022-12-25T20:03:48.482Z,78.02
2022-12-25T20:06:24.998Z,78.63
2022-12-25T20:08:59.775Z,78.23
2022-12-25T20:11:35.698Z,78.40
2022-12-25T20:14:09.352Z,78.44
2022-12-25T20:16:42.474Z,78.48
2022-12-25T20:19:16.321Z,78.55
2022-12-25T20:21:49.356Z,78.74
2022-12-25T20:24:22.101Z,78.57
2022-12-25T20:26:59.246Z,78.52
2022-12-25T20:29:32.514Z,78.36
2022-12-25T20:32:05.999Z,78.44
2022-12-25T20:34:39.134Z,78.65
2022-12-25T20:37:12.101Z,78.79
2022-12-25T20:39:48.141Z,78.73
2022-12-25T20:42:22.984Z,78.48
2022-12-25T20:44:57.229Z,78.45
2022-12-25T20:47:30.332Z,78.40
2022-12-25T20:50:03.652Z,78.67
2022-12-25T20:52:37.046Z,78.22
2022-12-25T20:55:10.295Z,78.30
2022-12-25T20:57:44.751Z,78.65
2022-12-25T21:00:17.837Z,78.67
2022-12-25T21:02:51.268Z,78.87
2022-12-25T21:05:24.834Z,78.65
2022-12-25T21:07:58.334Z,78.73
2022-12-25T21:10:31.487Z,79.04
2022-12-25T21:13:06.105Z,78.93
2022-12-25T21:15:45.236Z,78.57
2022-12-25T21:18:20.480Z,78.84
2022-12-25T21:20:55.920Z,78.47
2022-12-25T21:23:33.221Z,78.25
2022-12-25T21:26:15.181Z,78.21
2022-12-25T21:28:51.609Z,78.45
2022-12-25T21:31:28.588Z,78.18
2022-12-25T21:34:01.289Z,78.44
2022-12-25T21:36:35.957Z,78.20
2022-12-25T21:39:09.757Z,78.38
2022-12-25T21:41:43.663Z,78.36
2022-12-25T21:44:18.948Z,78.37
2022-12-25T21:46:52.432Z,78.49
2022-12-25T21:49:43.603Z,78.40
2022-12-25T21:52:16.931Z,78.33
2022-12-25T21:54:52.944Z,78.59
2022-12-25T21:57:26.363Z,79.02
2022-12-25T22:00:01.410Z,78.29
2022-12-25T22:02:35.038Z,78.13
2022-12-25T22:05:09.513Z,78.82
2022-12-25T22:07:43.129Z,78.54
2022-12-25T22:10:18.344Z,78.42
2022-12-25T22:13:09.296Z,78.30
2022-12-25T22:16:02.654Z,78.56
2022-12-25T22:19:05.301Z,78.83
2022-12-25T22:21:44.008Z,78.55
2022-12-25T22:24:17.575Z,78.24
2022-12-25T22:26:53.049Z,78.87
2022-12-25T22:29:26.400Z,78.84
2022-12-25T22:32:01.635Z,78.58
2022-12-25T22:34:35.163Z,78.35
2022-12-25T22:37:10.180Z,78.59
2022-12-25T22:39:43.432Z,78.41
2022-12-25T22:42:18.881Z,78.54
2022-12-25T22:44:54.430Z,78.42
2022-12-25T22:47:34.898Z,78.54
2022-12-25T22:50:12.523Z,78.49
2022-12-25T22:52:47.398Z,78.40
2022-12-25T22:55:21.865Z,78.60
2022-12-25T22:57:55.997Z,78.62
2022-12-25T23:00:29.458Z,79.07
2022-12-25T23:03:04.224Z,78.49
2022-12-25T23:05:37.698Z,78.96
2022-12-25T23:08:11.005Z,79.06
2022-12-25T23:10:43.929Z,78.61
2022-12-25T23:13:33.918Z,78.91
2022-12-25T23:16:07.158Z,78.87
2022-12-25T23:18:59.011Z,78.58
2022-12-25T23:21:49.998Z,78.89
2022-12-25T23:24:40.274Z,78.94
2022-12-25T23:27:13.991Z,79.01
2022-12-25T23:29:48.930Z,78.95
2022-12-25T23:32:25.326Z,79.15
2022-12-25T23:34:59.926Z,78.97
2022-12-25T23:37:37.510Z,79.25
2022-12-25T23:40:11.837Z,79.09
2022-12-25T23:42:46.210Z,78.91
2022-12-25T23:45:21.561Z,79.06
2022-12-25T23:47:54.416Z,79.13
2022-12-25T23:50:28.744Z,78.69
2022-12-25T23:53:01.927Z,79.32
2022-12-25T23:55:43.014Z,79.03
2022-12-25T23:58:18.698Z,78.95
